Philadelphia, PA (19255)

9:07 AM EDT on July 29, 2016 (GMT -0400)
Graduate Hospital | | Change Station

Elev 52 ft 39.94 °N, 75.17 °W | Updated 3 minutes ago

Overcast
Overcast
76.6 °F
Feels Like 78 °F
N
6.8
Wind Variable Wind from SW

Today
High -- | Low -- °F
--% Chance of Precip.
Yesterday
High -- | Low -- °F
Precip. -- in
Pressure 29.85 in
Visibility 7.0 miles
Clouds Mostly Cloudy 1200 ft
Mostly Cloudy 1800 ft
Overcast 2300 ft
Heat Index 78 °F
Dew Point 71 °F
Humidity 83%
Rainfall 0.36 in
Snow Depth Not available.
5:56 AM 8:16 PM
Waning Crescent, 22% visible
METAR KPHL 291254Z 04007KT 350V110 7SM BKN012 BKN018 OVC023 23/22 A2985 RMK AO2 RAB05E15 SLP107 P0000 T02330217 $
Pressure 29.85 in
Visibility 7.0 miles
Clouds Mostly Cloudy 1200 ft
Mostly Cloudy 1800 ft
Overcast 2300 ft
Heat Index 78 °F
Dew Point 71 °F
Humidity 83%
Rainfall 0.36 in
Snow Depth Not available.
5:56 AM 8:16 PM
Waning Crescent, 22% visible
METAR KPHL 291254Z 04007KT 350V110 7SM BKN012 BKN018 OVC023 23/22 A2985 RMK AO2 RAB05E15 SLP107 P0000 T02330217 $

10-Day Weather Forecast

Almanac

Astronomy

Jul. 29, 2016 Rise Set
Actual Time
Civil Twilight
Nautical Twilight
Astronomical Twilight
Moon
Length of Visible Light
Length of Day
Tomorrow will be .
, % of the Moon is Illuminated

Today's Extremes

State Highs State Lows

Community

WunderPhotos

Upload Photos

1,928,336 photos uploaded!

WunderBlog® & News

Nearby

Air Quality

  Air Quality AQ Index Pollutant
Not available.

Snow Depth

Station Depth Elevation

Earthquake Activity

City Distance Mag. Time & Date
Minimum magnitude displayed is 2.5.

Coastal Water Temperatures

Place Temperature

Stations

Nearby Weather Stations

Station Location Temp. Windchill Dew Point Humidity Wind Precip. Elev Updated Type
                   

Watches & Warnings

There are currently no watches in effect.